Hondo, Texas
Current Conditions -  °F | °C
As of 3:51 PM on Thursday 23 Oct 2014 (Local Time) from KHDO Reporting Station
Few Clouds Few Clouds  
Wind Chill: 80°   Ceiling: Unl
Heat Index: 81°   Visibility: 10mi
Dew Point: 58°   Wind: 0mph
Humidity: 47%   Direction: NA
Pressure: 30.09"   Gusts: NA
Location:  29.35°N, 99.14°W
Report Text: KHDO 232051Z AUTO 00000KT 10SM FEW050 27/14 A3009 RMK AO2 SLP175 T02670144 56027
Loading
Personal Weather Stations






























Interactive Weather Map New forecast layout! Learn more

10-Day Weather Forecast

Advertisements
Track Severe Weather on mobile